METAR Data
IDs: Format: Raw Decoded Include TAF

Data at: 1838 UTC 26 Oct 2021

K4F2 261815Z AUTO 09006KT 10SM SCT024 SCT030 27/19 A2992 RMK AO2 T02650191
K4F2 261755Z AUTO 14007KT 100V180 10SM SCT024 SCT039 25/18 A2993 RMK AO2 T02500185 10262 20168
K4F2 261735Z AUTO 13007KT 090V180 10SM SCT026 BKN037 25/19 A2994 RMK AO2 T02510185
K4F2 261715Z AUTO 13009KT 100V180 10SM SCT015 BKN028 OVC035 24/18 A2996 RMK AO2 T02410177
K4F2 261655Z AUTO 10008KT 080V140 10SM BKN015 BKN037 24/18 A2996 RMK AO2 T02440176
K4F2 261635Z AUTO 13008KT 10SM OVC015 24/17 A2998 RMK AO2 T02370171
K4F2 261615Z AUTO 11008KT 090V150 10SM BKN015 OVC021 23/16 A2998 RMK AO2 T02330161
K4F2 261555Z AUTO 10007KT 10SM BKN013 BKN019 OVC035 23/15 A2999 RMK AO2 T02270155
K4F2 261535Z AUTO 12006KT 10SM OVC013 21/15 A3000 RMK AO2 T02090146
K4F2 261515Z AUTO 13003KT 10SM BKN015 OVC021 21/15 A2999 RMK AO2 T02080146
K4F2 261455Z AUTO 12005KT 10SM OVC017 20/14 A3000 RMK AO2 T02040145
K4F2 261435Z AUTO 14005KT 10SM OVC013 19/14 A3000 RMK AO2 T01940141
K4F2 261415Z AUTO 12005KT 10SM OVC013 19/14 A3000 RMK AO2 T01920141
K4F2 261355Z AUTO 11004KT 10SM OVC015 19/14 A3000 RMK AO2 T01860139
K4F2 261335Z AUTO 12004KT 10SM BKN015 OVC022 18/14 A3000 RMK AO2 T01800138
K4F2 261315Z AUTO 13005KT 10SM BKN022 BKN027 BKN039 18/14 A3000 RMK AO2 T01790136
K4F2 261255Z AUTO 12003KT 10SM SCT024 BKN036 17/13 A2999 RMK AO2 T01740134
K4F2 261235Z AUTO 11005KT 10SM BKN024 OVC032 18/13 A2998 RMK AO2 T01760135
K4F2 261215Z AUTO 00000KT 10SM SCT024 BKN038 17/13 A2999 RMK AO2 T01690132
K4F2 261155Z AUTO 00000KT 10SM SCT038 17/13 A2999 RMK AO2 T01690132 10197 20165
K4F2 261135Z AUTO 00000KT 10SM CLR 17/13 A2998 RMK AO2 T01710132
K4F2 261115Z AUTO 12003KT 10SM SCT023 BKN037 18/13 A2998 RMK AO2 T01750133
K4F2 261055Z AUTO 00000KT 10SM SCT023 OVC039 18/13 A2998 RMK AO2 T01810134
K4F2 261035Z AUTO 00000KT 10SM SCT023 OVC037 18/14 A2998 RMK AO2 T01830135
K4F2 261015Z AUTO 00000KT 10SM OVC037 18/13 A2997 RMK AO2 T01810135
K4F2 260955Z AUTO 00000KT 10SM OVC037 18/13 A2997 RMK AO2 T01800134
K4F2 260935Z AUTO 00000KT 10SM BKN037 18/13 A2997 RMK AO2 T01820133
K4F2 260915Z AUTO 00000KT 10SM SCT038 18/13 A2996 RMK AO2 T01810131
K4F2 260855Z AUTO 10003KT 10SM CLR 18/13 A2996 RMK AO2 T01840131
K4F2 260835Z AUTO 11003KT 10SM CLR 19/13 A2996 RMK AO2 T01860133
K4F2 260815Z AUTO 11003KT 10SM SCT043 19/13 A2996 RMK AO2 T01890132
K4F2 260755Z AUTO 13004KT 10SM SCT043 19/13 A2997 RMK AO2 T01930131
K4F2 260735Z AUTO 12004KT 10SM CLR 19/13 A2998 RMK AO2 T01940131
K4F2 260715Z AUTO 11003KT 10SM SCT033 19/13 A2997 RMK AO2 T01880132
K4F2 260655Z AUTO 09003KT 10SM SCT033 19/13 A2998 RMK AO2 T01940131
K4F2 260635Z AUTO 11007KT 10SM CLR 19/13 A2998 RMK AO2 T01920134
K4F2 260615Z AUTO 09003KT 10SM CLR 17/14 A2998 RMK AO2 T01700138
K4F2 260555Z AUTO 09003KT 10SM CLR 17/14 A2998 RMK AO2 T01740141 10241 20160
K4F2 260535Z AUTO 09004KT 10SM CLR 16/14 A2998 RMK AO2 T01630141
K4F2 260515Z AUTO 10004KT 10SM CLR 16/14 A2998 RMK AO2 T01650142
K4F2 260455Z AUTO 00000KT 10SM CLR 17/14 A2998 RMK AO2 T01690142
K4F2 260435Z AUTO 00000KT 10SM CLR 17/14 A2999 RMK AO2 T01690141
K4F2 260415Z AUTO 12004KT 10SM CLR 17/14 A2998 RMK AO2 T01680143
K4F2 260355Z AUTO 11006KT 10SM CLR 17/14 A2998 RMK AO2 T01750136
K4F2 260335Z AUTO 00000KT 10SM CLR 18/14 A2998 RMK AO2 T01760142
K4F2 260315Z AUTO 13004KT 10SM CLR 18/14 A2998 RMK AO2 T01800145
K4F2 260255Z AUTO 10006KT 10SM CLR 18/14 A2997 RMK AO2 T01820144
K4F2 260235Z AUTO 13004KT 10SM CLR 19/14 A2997 RMK AO2 T01890139
K4F2 260215Z AUTO 36004KT 10SM CLR 19/15 A2996 RMK AO2 T01920148
K4F2 260155Z AUTO 12006KT 10SM CLR 20/14 A2996 RMK AO2 T01970145
K4F2 260135Z AUTO 11004KT 10SM CLR 20/15 A2996 RMK AO2 T02050146
K4F2 260115Z AUTO 09003KT 10SM CLR 21/14 A2995 RMK AO2 T02110140
K4F2 260055Z AUTO 00000KT 10SM CLR 22/14 A2995 RMK AO2 T02160143
K4F2 260035Z AUTO 00000KT 10SM CLR 23/14 A2994 RMK AO2 T02290137
K4F2 260015Z AUTO 00000KT 10SM CLR 23/15 A2994 RMK AO2 T02270153
K4F2 252355Z AUTO 00000KT 10SM CLR 24/15 A2993 RMK AO2 T02430149 10330 20239 403300205
K4F2 252335Z AUTO 00000KT 10SM CLR 26/16 A2993 RMK AO2 T02590156
K4F2 252315Z AUTO 00000KT 10SM CLR 28/15 A2992 RMK AO2 T02780153
K4F2 252255Z AUTO 02003KT 10SM CLR 30/13 A2992 RMK AO2 T03020135
K4F2 252235Z AUTO 02004KT 10SM CLR 32/13 A2992 RMK AO2 T03160133
K4F2 252215Z AUTO 00000KT 10SM CLR 32/12 A2991 RMK AO2 T03200123
K4F2 252155Z AUTO 36003KT 10SM CLR 32/13 A2991 RMK AO2 T03230126
K4F2 252135Z AUTO 10004KT 10SM CLR 32/14 A2991 RMK AO2 T03220136
K4F2 252115Z AUTO 06003KT 10SM CLR 33/14 A2991 RMK AO2 T03250138
K4F2 252055Z AUTO 05003KT 10SM CLR 33/14 A2991 RMK AO2 T03270144
K4F2 252035Z AUTO 34005KT 10SM CLR 33/15 A2991 RMK AO2 T03270151
K4F2 252015Z AUTO 00000KT 10SM CLR 32/16 A2992 RMK AO2 T03240159
K4F2 251955Z AUTO 34005KT 10SM CLR 32/16 A2992 RMK AO2 T03230163
K4F2 251935Z AUTO 34005KT 10SM CLR 32/17 A2992 RMK AO2 T03250170
K4F2 251915Z AUTO 33005KT 10SM CLR 32/17 A2993 RMK AO2 T03240172
K4F2 251855Z AUTO 30003KT 10SM CLR 32/17 A2993 RMK AO2 T03190171
K4F2 251835Z AUTO 31005KT 10SM CLR 32/18 A2994 RMK AO2 T03190175
K4F2 251815Z AUTO 00000KT 10SM CLR 32/17 A2995 RMK AO2 T03160171
K4F2 251755Z AUTO 32005KT 10SM CLR 31/17 A2996 RMK AO2 T03090170 10311 20220
K4F2 251735Z AUTO 00000KT 10SM CLR 30/18 A2996 RMK AO2 T03030178
K4F2 251715Z AUTO 00000KT 10SM CLR 30/19 A2997 RMK AO2 T03000190
K4F2 251655Z AUTO 35007KT 10SM CLR 29/20 A2997 RMK AO2 T02950199
K4F2 251635Z AUTO 36006KT 10SM CLR 29/21 A2997 RMK AO2 T02880211
K4F2 251615Z AUTO 34006KT 10SM CLR 28/21 A2997 RMK AO2 T02840215
K4F2 251555Z AUTO 32004KT 10SM CLR 28/21 A2997 RMK AO2 T02770212
K4F2 251535Z AUTO 29004KT 10SM CLR 27/21 A2998 RMK AO2 T02690211
K4F2 251515Z AUTO 36004KT 10SM CLR 27/21 A2998 RMK AO2 T02660214
K4F2 251455Z AUTO 34005KT 10SM SCT012 26/21 A2998 RMK AO2 T02610214
K4F2 251435Z AUTO 28004KT 10SM SCT010 25/22 A2998 RMK AO2 T02540217
K4F2 251415Z AUTO 31004KT 10SM SCT010 25/22 A2997 RMK AO2 T02480220
K4F2 251355Z AUTO 27003KT 10SM CLR 24/22 A2997 RMK AO2 T02430221
K4F2 251335Z AUTO 00000KT 10SM CLR 23/22 A2996 RMK AO2 T02330220
K4F2 251315Z AUTO 19003KT 10SM SCT010 22/22 A2996 RMK AO2 T02250217
K4F2 251255Z AUTO 00000KT 10SM OVC010 22/22 A2995 RMK AO2 T02210215
K4F2 251235Z AUTO 00000KT 10SM BKN010 BKN020 22/22 A2995 RMK AO2 T02220216
K4F2 251215Z AUTO 00000KT 10SM SCT008 SCT014 OVC020 22/22 A2995 RMK AO2 T02240215
K4F2 251155Z AUTO 24003KT 10SM BKN008 BKN014 OVC019 23/22 A2995 RMK AO2 T02270217 10228 20211
K4F2 251135Z AUTO 28003KT 10SM OVC008 23/22 A2995 RMK AO2 T02280217
K4F2 251115Z AUTO 27003KT 10SM OVC008 23/22 A2994 RMK AO2 T02270216
K4F2 251055Z AUTO 00000KT 10SM OVC008 23/22 A2993 RMK AO2 T02270215
K4F2 251035Z AUTO 29003KT 10SM OVC008 23/22 A2992 RMK AO2 T02270215
K4F2 251015Z AUTO 24003KT 10SM OVC008 23/22 A2991 RMK AO2 T02270216
K4F2 250955Z AUTO 21004KT 10SM OVC008 23/21 A2991 RMK AO2 T02250214
K4F2 250935Z AUTO 20003KT 10SM OVC008 22/21 A2991 RMK AO2 T02240214
K4F2 250915Z AUTO 20004KT 10SM OVC008 22/21 A2991 RMK AO2 T02230214
K4F2 250855Z AUTO 20003KT 10SM BKN008 OVC014 22/21 A2990 RMK AO2 T02180210
K4F2 250835Z AUTO 20005KT 10SM OVC008 22/21 A2990 RMK AO2 T02220212
K4F2 250815Z AUTO 21005KT 10SM OVC008 22/21 A2990 RMK AO2 T02230213
K4F2 250755Z AUTO 20005KT 10SM OVC008 22/21 A2990 RMK AO2 T02230213
K4F2 250735Z AUTO 20006KT 10SM OVC008 22/21 A2990 RMK AO2 T02200212
K4F2 250715Z AUTO 20005KT 10SM OVC008 22/21 A2990 RMK AO2 T02200212
K4F2 250655Z AUTO 00000KT 10SM BKN010 21/21 A2990 RMK AO2 T02110206